Time;durP1;ratioP1;P1;durP2;ratioP2;P2;SDS_P1;SDS_P2;PMS_P1;PMS_P2;Temp;Humidity;BMP_temperature;BMP_pressure;BME280_temperature;BME280_humidity;BME280_pressure;Samples;Min_cycle;Max_cycle;Signal;HPM_P1;HPM_P2
2023/01/17 00:00:33;;;;;;;93.60;50.15;;;;;;;;;;5102232;28;20039;-73
2023/01/17 00:03:19;;;;;;;90.15;48.00;;;;;;;;;;5115653;28;20016;-75
2023/01/17 00:12:17;;;;;;;75.22;40.83;;;;;;;;;;5116407;28;20080;-73
2023/01/17 00:15:03;;;;;;;70.55;38.97;;;;;;;;;;5116107;28;20019;-73
2023/01/17 00:17:49;;;;;;;114.75;54.75;;;;;;;;;;5116143;28;20064;-74
2023/01/17 01:36:05;;;;;;;34.33;19.75;;;;;;;;;;5116755;28;20061;-75
2023/01/17 01:38:53;;;;;;;33.42;20.40;;;;;;;;;;5115712;28;20016;-74
2023/01/17 01:41:38;;;;;;;32.03;19.77;;;;;;;;;;5116040;28;20024;-73
2023/01/17 01:44:42;;;;;;;31.35;19.13;;;;;;;;;;5102030;28;20454;-74
2023/01/17 01:47:34;;;;;;;36.35;20.98;;;;;;;;;;5116264;28;20027;-74
2023/01/17 01:50:20;;;;;;;33.72;19.70;;;;;;;;;;5115381;28;20055;-74
2023/01/17 01:53:06;;;;;;;32.50;19.83;;;;;;;;;;5100569;28;20077;-73
2023/01/17 01:55:51;;;;;;;32.80;19.83;;;;;;;;;;5115625;28;20007;-75
2023/01/17 01:58:38;;;;;;;29.50;18.92;;;;;;;;;;5100548;28;20023;-74
2023/01/17 02:01:24;;;;;;;32.17;19.10;;;;;;;;;;5100915;28;20050;-74
2023/01/17 02:04:10;;;;;;;28.45;18.58;;;;;;;;;;5115612;28;20040;-74
2023/01/17 02:07:05;;;;;;;32.30;17.90;;;;;;;;;;5100476;28;20023;-74
2023/01/17 02:09:51;;;;;;;32.45;19.60;;;;;;;;;;5114986;28;20024;-74
2023/01/17 02:12:37;;;;;;;32.53;19.38;;;;;;;;;;5099640;28;20012;-75
2023/01/17 02:15:27;;;;;;;28.75;17.13;;;;;;;;;;5115221;28;20016;-73
2023/01/17 02:18:19;;;;;;;28.27;17.77;;;;;;;;;;5115239;28;20359;-74
2023/01/17 02:21:04;;;;;;;27.02;16.10;;;;;;;;;;5115355;28;20095;-74
2023/01/17 02:23:50;;;;;;;23.15;14.07;;;;;;;;;;5115974;28;20015;-74
2023/01/17 02:26:35;;;;;;;24.90;15.68;;;;;;;;;;5115670;28;20103;-75
2023/01/17 02:29:45;;;;;;;25.00;15.52;;;;;;;;;;5100050;28;20019;-74
2023/01/17 02:32:54;;;;;;;24.98;14.63;;;;;;;;;;5115234;28;20031;-75
2023/01/17 02:35:45;;;;;;;24.48;15.18;;;;;;;;;;5114617;28;20106;-75
2023/01/17 02:38:35;;;;;;;25.23;14.98;;;;;;;;;;5115230;28;20043;-75
2023/01/17 02:41:25;;;;;;;22.77;14.18;;;;;;;;;;5114192;28;20020;-75
2023/01/17 02:44:14;;;;;;;20.98;13.77;;;;;;;;;;5100710;28;20069;-74
2023/01/17 02:47:00;;;;;;;21.17;13.73;;;;;;;;;;5099932;28;20023;-74
2023/01/17 02:49:45;;;;;;;22.63;13.10;;;;;;;;;;5114235;28;20028;-74
2023/01/17 02:52:43;;;;;;;20.42;13.07;;;;;;;;;;5115005;28;20024;-75
2023/01/17 02:55:44;;;;;;;18.90;11.77;;;;;;;;;;5114768;28;20094;-75
2023/01/17 02:58:42;;;;;;;21.67;13.63;;;;;;;;;;5114708;28;20016;-74
2023/01/17 03:01:35;;;;;;;22.30;14.25;;;;;;;;;;5114328;28;20056;-74
2023/01/17 03:04:26;;;;;;;22.08;13.43;;;;;;;;;;5114599;28;20024;-74
2023/01/17 03:07:16;;;;;;;26.20;15.50;;;;;;;;;;5114627;28;20023;-74
2023/01/17 03:10:03;;;;;;;25.17;15.82;;;;;;;;;;5114063;28;20038;-74
2023/01/17 03:12:49;;;;;;;24.38;15.75;;;;;;;;;;5114522;28;20027;-74
2023/01/17 03:15:35;;;;;;;26.95;16.20;;;;;;;;;;5114372;28;20031;-74
2023/01/17 03:18:20;;;;;;;26.17;16.42;;;;;;;;;;5115541;28;20023;-75
2023/01/17 03:21:06;;;;;;;24.67;15.40;;;;;;;;;;5100380;28;20097;-75
2023/01/17 03:23:52;;;;;;;23.75;14.75;;;;;;;;;;5099069;28;20031;-74
2023/01/17 03:26:37;;;;;;;25.15;15.43;;;;;;;;;;5115112;28;20106;-74
2023/01/17 03:29:23;;;;;;;24.02;15.52;;;;;;;;;;5100253;28;20120;-74
2023/01/17 03:32:08;;;;;;;28.90;17.15;;;;;;;;;;5099070;28;20028;-76
2023/01/17 03:34:54;;;;;;;21.48;13.18;;;;;;;;;;5114463;28;20059;-75
2023/01/17 03:37:40;;;;;;;23.15;15.20;;;;;;;;;;5100267;28;20111;-74
2023/01/17 03:40:25;;;;;;;25.88;16.20;;;;;;;;;;5114290;28;20027;-75
2023/01/17 03:43:11;;;;;;;23.90;14.95;;;;;;;;;;5114217;28;20383;-75
2023/01/17 03:46:04;;;;;;;23.40;14.40;;;;;;;;;;5114331;28;20351;-74
2023/01/17 03:48:50;;;;;;;24.05;13.88;;;;;;;;;;5115503;28;20454;-74
2023/01/17 03:51:35;;;;;;;19.42;12.35;;;;;;;;;;5113470;28;20083;-74
2023/01/17 03:54:21;;;;;;;19.85;12.50;;;;;;;;;;5116535;28;20193;-75
2023/01/17 03:57:07;;;;;;;14.85;10.20;;;;;;;;;;5118213;28;20012;-75
2023/01/17 03:59:52;;;;;;;15.93;8.85;;;;;;;;;;5102789;28;20057;-74
2023/01/17 04:02:38;;;;;;;12.32;7.60;;;;;;;;;;5117825;28;20127;-75
2023/01/17 04:05:24;;;;;;;14.50;9.55;;;;;;;;;;5118377;28;20020;-74
2023/01/17 04:08:09;;;;;;;16.65;10.30;;;;;;;;;;5117922;28;20095;-74
2023/01/17 04:10:55;;;;;;;14.60;10.50;;;;;;;;;;5102727;28;20020;-74
2023/01/17 04:13:40;;;;;;;17.75;10.82;;;;;;;;;;5102500;28;20020;-73
2023/01/17 04:16:30;;;;;;;16.23;10.85;;;;;;;;;;5117809;28;20015;-74
2023/01/17 04:19:16;;;;;;;14.55;9.57;;;;;;;;;;5103131;28;20055;-74
2023/01/17 04:22:02;;;;;;;14.23;9.43;;;;;;;;;;5117069;28;20386;-74
2023/01/17 04:24:47;;;;;;;13.10;9.02;;;;;;;;;;5117529;28;20445;-73
2023/01/17 04:27:33;;;;;;;10.80;7.35;;;;;;;;;;5117517;28;20038;-74
2023/01/17 04:30:18;;;;;;;11.65;7.53;;;;;;;;;;5117540;28;20103;-73
2023/01/17 04:33:04;;;;;;;9.02;6.43;;;;;;;;;;5117100;28;20031;-74
2023/01/17 04:35:51;;;;;;;8.70;6.68;;;;;;;;;;5117115;28;20019;-74
2023/01/17 04:38:37;;;;;;;10.45;6.80;;;;;;;;;;5101484;28;20020;-74
2023/01/17 04:41:22;;;;;;;9.05;6.25;;;;;;;;;;5117138;28;20108;-74
2023/01/17 04:44:08;;;;;;;9.98;6.72;;;;;;;;;;5116884;28;20020;-74
2023/01/17 04:46:53;;;;;;;8.20;6.05;;;;;;;;;;5116297;28;20352;-74
2023/01/17 04:49:39;;;;;;;9.00;6.22;;;;;;;;;;5117375;28;20067;-73
2023/01/17 04:52:25;;;;;;;9.07;6.10;;;;;;;;;;5116618;28;20028;-73
2023/01/17 04:55:10;;;;;;;9.50;6.82;;;;;;;;;;5102640;28;20023;-74
2023/01/17 04:57:56;;;;;;;11.40;7.10;;;;;;;;;;5117913;28;20434;-74
2023/01/17 05:00:41;;;;;;;8.75;6.00;;;;;;;;;;5117393;28;20075;-75
2023/01/17 05:03:28;;;;;;;9.18;5.97;;;;;;;;;;5116943;28;20035;-73
2023/01/17 05:06:14;;;;;;;7.38;5.93;;;;;;;;;;5102622;28;20500;-74
2023/01/17 05:09:01;;;;;;;7.95;5.70;;;;;;;;;;5119320;28;20394;-74
2023/01/17 05:11:47;;;;;;;8.80;5.85;;;;;;;;;;5103663;28;20027;-74
2023/01/17 05:14:33;;;;;;;8.88;6.22;;;;;;;;;;5116280;28;20020;-74
2023/01/17 05:17:18;;;;;;;8.50;5.72;;;;;;;;;;5116376;28;20447;-73
2023/01/17 05:20:04;;;;;;;8.55;5.57;;;;;;;;;;5116865;28;20016;-76
2023/01/17 05:22:54;;;;;;;7.55;5.53;;;;;;;;;;5118290;28;20355;-76
2023/01/17 05:25:43;;;;;;;7.90;5.47;;;;;;;;;;5104590;28;20123;-76
2023/01/17 05:28:28;;;;;;;8.05;5.57;;;;;;;;;;5117779;28;20344;-76
2023/01/17 05:31:14;;;;;;;8.52;5.80;;;;;;;;;;5101521;28;20031;-75
2023/01/17 05:33:59;;;;;;;7.72;5.75;;;;;;;;;;5114866;28;20079;-75
2023/01/17 05:36:45;;;;;;;7.60;5.68;;;;;;;;;;5131761;28;20015;-75
2023/01/17 05:39:30;;;;;;;7.18;5.35;;;;;;;;;;5119807;28;20497;-75
2023/01/17 05:42:16;;;;;;;10.70;6.10;;;;;;;;;;5117548;28;20032;-76
2023/01/17 05:45:02;;;;;;;9.95;6.28;;;;;;;;;;5116434;28;20023;-76
2023/01/17 05:47:49;;;;;;;12.55;7.35;;;;;;;;;;5107835;28;20124;-75
2023/01/17 05:50:36;;;;;;;12.98;7.85;;;;;;;;;;5132198;28;20019;-75
2023/01/17 05:53:22;;;;;;;176.88;101.72;;;;;;;;;;5116523;28;20047;-76
2023/01/17 05:56:07;;;;;;;33.38;20.63;;;;;;;;;;5115907;28;20035;-76
2023/01/17 05:58:53;;;;;;;13.35;8.93;;;;;;;;;;5117074;28;20015;-76
2023/01/17 06:01:38;;;;;;;17.35;8.57;;;;;;;;;;5116538;28;20035;-76
2023/01/17 06:04:24;;;;;;;14.60;8.07;;;;;;;;;;5132063;28;20083;-76
2023/01/17 06:07:09;;;;;;;11.82;8.27;;;;;;;;;;5133324;28;20350;-75
2023/01/17 06:09:55;;;;;;;12.00;7.65;;;;;;;;;;5135382;28;20077;-75
2023/01/17 06:12:41;;;;;;;14.00;8.18;;;;;;;;;;5136405;28;20023;-76
2023/01/17 06:15:26;;;;;;;12.65;7.57;;;;;;;;;;5134110;28;20008;-75
2023/01/17 06:18:13;;;;;;;12.57;8.80;;;;;;;;;;5133198;28;20031;-75
2023/01/17 06:20:59;;;;;;;13.98;8.95;;;;;;;;;;5129885;28;20016;-74
2023/01/17 06:23:44;;;;;;;11.35;7.63;;;;;;;;;;5120174;28;20067;-74
2023/01/17 06:26:30;;;;;;;13.13;8.27;;;;;;;;;;5134649;27;20007;-76
2023/01/17 06:29:15;;;;;;;13.30;8.82;;;;;;;;;;5135863;28;20034;-74
2023/01/17 06:32:01;;;;;;;13.35;8.10;;;;;;;;;;5137134;28;20042;-74
2023/01/17 06:34:47;;;;;;;10.82;8.05;;;;;;;;;;5137999;28;20030;-74
2023/01/17 06:37:32;;;;;;;12.80;8.10;;;;;;;;;;5136200;28;20024;-76
2023/01/17 06:40:18;;;;;;;11.32;7.53;;;;;;;;;;5135316;28;20015;-75
2023/01/17 06:43:04;;;;;;;10.82;7.38;;;;;;;;;;5124288;28;20459;-75
2023/01/17 06:45:49;;;;;;;8.50;6.90;;;;;;;;;;5132204;28;20000;-75
2023/01/17 06:48:35;;;;;;;9.70;6.50;;;;;;;;;;5129914;28;20031;-75
2023/01/17 06:51:20;;;;;;;8.05;5.78;;;;;;;;;;5121033;28;20070;-75
2023/01/17 06:54:06;;;;;;;7.85;6.28;;;;;;;;;;5116187;28;20035;-75
2023/01/17 06:56:52;;;;;;;10.00;6.60;;;;;;;;;;5124718;28;20039;-74
2023/01/17 06:59:37;;;;;;;9.35;6.90;;;;;;;;;;5133317;28;20018;-75
2023/01/17 07:02:23;;;;;;;14.27;9.15;;;;;;;;;;5117228;28;20039;-75
2023/01/17 07:05:09;;;;;;;17.45;10.07;;;;;;;;;;5118067;28;20121;-75
2023/01/17 07:07:54;;;;;;;16.25;9.63;;;;;;;;;;5119542;28;20019;-76
2023/01/17 07:10:40;;;;;;;15.07;10.35;;;;;;;;;;5135289;28;20044;-75
2023/01/17 07:13:26;;;;;;;13.15;8.75;;;;;;;;;;5135418;28;20022;-75
2023/01/17 07:16:12;;;;;;;16.42;10.35;;;;;;;;;;5136148;28;20016;-75
2023/01/17 07:18:57;;;;;;;15.13;10.23;;;;;;;;;;5136711;28;20020;-75
2023/01/17 07:21:43;;;;;;;20.02;11.35;;;;;;;;;;5137255;28;20015;-75
2023/01/17 07:24:28;;;;;;;17.08;11.63;;;;;;;;;;5136996;28;20012;-75
2023/01/17 07:27:14;;;;;;;22.88;13.43;;;;;;;;;;5136122;28;20007;-74
2023/01/17 07:30:00;;;;;;;19.17;13.40;;;;;;;;;;5140052;28;20051;-73
2023/01/17 07:32:49;;;;;;;19.83;13.38;;;;;;;;;;5125388;28;20031;-75
2023/01/17 07:35:35;;;;;;;23.25;14.35;;;;;;;;;;5140325;28;20011;-75
2023/01/17 07:38:20;;;;;;;23.50;14.63;;;;;;;;;;5138476;28;20015;-75
2023/01/17 07:41:06;;;;;;;22.85;14.85;;;;;;;;;;5137991;28;20015;-75
2023/01/17 07:43:52;;;;;;;23.52;13.88;;;;;;;;;;5119890;28;20031;-73
2023/01/17 07:46:37;;;;;;;29.48;17.63;;;;;;;;;;5133251;28;20027;-74
2023/01/17 07:49:23;;;;;;;23.45;15.82;;;;;;;;;;5117116;28;20027;-74
2023/01/17 07:52:08;;;;;;;23.90;15.10;;;;;;;;;;5127237;28;20061;-75
2023/01/17 07:54:54;;;;;;;25.38;15.88;;;;;;;;;;5121163;28;20462;-74
2023/01/17 07:57:39;;;;;;;23.33;15.65;;;;;;;;;;5119180;28;20101;-75
2023/01/17 08:00:26;;;;;;;29.75;16.15;;;;;;;;;;5118870;28;20123;-75
2023/01/17 08:03:15;;;;;;;27.33;17.52;;;;;;;;;;5120697;28;20020;-74
2023/01/17 08:06:01;;;;;;;29.92;17.85;;;;;;;;;;5106366;28;20024;-74
2023/01/17 08:08:47;;;;;;;27.88;18.33;;;;;;;;;;5118086;28;20360;-74
2023/01/17 08:11:33;;;;;;;24.38;16.30;;;;;;;;;;5103060;28;20390;-75
2023/01/17 08:14:18;;;;;;;32.60;17.48;;;;;;;;;;5118881;28;20089;-73
2023/01/17 08:17:11;;;;;;;27.65;15.02;;;;;;;;;;5118115;28;20076;-74
2023/01/17 08:19:57;;;;;;;23.20;15.00;;;;;;;;;;5103771;28;20045;-74
2023/01/17 08:22:43;;;;;;;21.27;14.23;;;;;;;;;;5118050;28;20055;-74
2023/01/17 08:25:28;;;;;;;25.75;15.40;;;;;;;;;;5118384;28;20101;-74
2023/01/17 08:28:14;;;;;;;25.90;17.35;;;;;;;;;;5117922;28;20020;-74
2023/01/17 08:31:18;;;;;;;25.00;16.50;;;;;;;;;;5102184;28;20020;-73
2023/01/17 08:34:04;;;;;;;25.65;15.57;;;;;;;;;;5117196;28;20102;-74
2023/01/17 08:36:50;;;;;;;25.40;15.68;;;;;;;;;;5118028;28;20099;-74
2023/01/17 08:39:36;;;;;;;24.42;15.27;;;;;;;;;;5116696;28;20066;-75
2023/01/17 08:42:22;;;;;;;25.40;14.40;;;;;;;;;;5117919;28;20032;-74
2023/01/17 08:45:08;;;;;;;22.20;15.43;;;;;;;;;;5118060;28;20408;-74
2023/01/17 08:47:53;;;;;;;22.00;14.15;;;;;;;;;;5117369;28;20428;-75
2023/01/17 08:50:39;;;;;;;17.92;12.95;;;;;;;;;;5117495;28;20035;-74
2023/01/17 08:53:24;;;;;;;18.42;11.95;;;;;;;;;;5118071;28;20076;-74
2023/01/17 08:56:10;;;;;;;14.75;8.35;;;;;;;;;;5117761;28;20019;-74
2023/01/17 08:58:55;;;;;;;12.23;8.05;;;;;;;;;;5117752;28;20034;-75
2023/01/17 09:01:44;;;;;;;22.08;14.45;;;;;;;;;;5117037;28;20130;-75
2023/01/17 09:04:30;;;;;;;17.80;11.48;;;;;;;;;;5117058;28;20030;-75
2023/01/17 09:07:16;;;;;;;19.27;11.25;;;;;;;;;;5116561;28;20011;-73
2023/01/17 09:10:02;;;;;;;15.48;10.30;;;;;;;;;;5116864;28;20024;-76
2023/01/17 09:12:48;;;;;;;15.60;10.52;;;;;;;;;;5117042;28;20028;-74
2023/01/17 09:15:33;;;;;;;13.43;8.63;;;;;;;;;;5116651;28;20451;-75
2023/01/17 09:18:19;;;;;;;16.63;8.95;;;;;;;;;;5117052;28;20035;-75
2023/01/17 09:21:08;;;;;;;12.68;7.57;;;;;;;;;;5102199;28;20452;-74
2023/01/17 09:23:54;;;;;;;12.43;7.43;;;;;;;;;;5117470;28;20081;-74
2023/01/17 09:26:40;;;;;;;10.25;6.47;;;;;;;;;;5102510;28;20372;-74
2023/01/17 09:29:26;;;;;;;9.13;5.63;;;;;;;;;;5116600;28;20321;-75
2023/01/17 09:32:11;;;;;;;8.00;5.45;;;;;;;;;;5116245;28;20475;-74
2023/01/17 09:34:59;;;;;;;10.02;6.43;;;;;;;;;;5117156;28;20034;-74
2023/01/17 09:37:47;;;;;;;9.27;5.68;;;;;;;;;;5116628;28;20436;-74
2023/01/17 09:40:36;;;;;;;8.23;5.53;;;;;;;;;;5102579;28;20083;-75
2023/01/17 09:43:30;;;;;;;10.68;6.18;;;;;;;;;;5116192;28;20512;-75
2023/01/17 09:46:21;;;;;;;7.65;5.40;;;;;;;;;;5116205;28;20096;-74
2023/01/17 09:49:25;;;;;;;7.65;5.80;;;;;;;;;;5120183;28;20470;-75
2023/01/17 09:52:12;;;;;;;11.20;5.38;;;;;;;;;;5115199;28;20359;-74
2023/01/17 09:54:58;;;;;;;9.00;4.50;;;;;;;;;;5101867;28;20027;-75
2023/01/17 09:57:43;;;;;;;5.65;4.20;;;;;;;;;;5116086;28;20027;-74
2023/01/17 10:00:47;;;;;;;6.80;3.90;;;;;;;;;;5115238;28;20047;-75
2023/01/17 10:03:38;;;;;;;8.80;4.30;;;;;;;;;;5116124;28;20034;-75
2023/01/17 10:06:43;;;;;;;7.25;4.38;;;;;;;;;;5115780;28;20490;-76
2023/01/17 10:09:37;;;;;;;4.90;4.00;;;;;;;;;;5116381;28;20373;-75
2023/01/17 10:12:26;;;;;;;6.30;4.25;;;;;;;;;;5116008;28;20031;-75
2023/01/17 10:15:17;;;;;;;7.95;4.88;;;;;;;;;;5115617;28;20031;-73
2023/01/17 10:18:03;;;;;;;7.30;4.47;;;;;;;;;;5115208;28;20115;-74
2023/01/17 10:21:01;;;;;;;8.32;4.50;;;;;;;;;;5115627;28;20055;-74
2023/01/17 10:23:53;;;;;;;6.80;4.25;;;;;;;;;;5115483;28;20035;-75
2023/01/17 10:26:39;;;;;;;7.47;4.20;;;;;;;;;;5114807;28;20462;-75
2023/01/17 10:29:26;;;;;;;9.05;4.43;;;;;;;;;;5115674;28;20100;-76
2023/01/17 10:32:13;;;;;;;9.60;4.70;;;;;;;;;;5114962;28;20455;-75
2023/01/17 10:35:01;;;;;;;5.80;3.97;;;;;;;;;;5114970;28;20023;-74
2023/01/17 10:37:48;;;;;;;5.97;3.88;;;;;;;;;;5115907;28;20070;-76
2023/01/17 10:40:50;;;;;;;6.28;4.28;;;;;;;;;;5115210;28;20028;-74
2023/01/17 10:43:43;;;;;;;8.38;3.75;;;;;;;;;;5101253;28;20051;-74
2023/01/17 10:46:34;;;;;;;6.38;3.63;;;;;;;;;;5116029;28;20023;-75
2023/01/17 10:49:22;;;;;;;6.75;3.60;;;;;;;;;;5115596;28;20031;-77
2023/01/17 10:52:28;;;;;;;5.60;3.70;;;;;;;;;;5100720;28;20030;-75
2023/01/17 10:55:27;;;;;;;7.22;3.65;;;;;;;;;;5079334;28;20107;-75
2023/01/17 10:58:13;;;;;;;7.30;4.05;;;;;;;;;;5101258;28;20020;-74
2023/01/17 11:01:00;;;;;;;8.05;3.97;;;;;;;;;;5116247;28;20047;-76
2023/01/17 11:03:53;;;;;;;9.23;4.00;;;;;;;;;;5117877;27;20079;-76
2023/01/17 11:06:41;;;;;;;10.18;4.55;;;;;;;;;;5119354;28;20099;-75
2023/01/17 11:09:46;;;;;;;11.88;4.80;;;;;;;;;;5104913;28;20027;-75
2023/01/17 11:12:45;;;;;;;6.85;4.03;;;;;;;;;;5118873;28;20509;-75
2023/01/17 11:15:33;;;;;;;6.35;3.80;;;;;;;;;;5119758;28;20379;-75
2023/01/17 11:18:20;;;;;;;7.93;3.65;;;;;;;;;;5118704;28;20027;-76
2023/01/17 11:21:14;;;;;;;6.40;3.10;;;;;;;;;;5119245;28;20024;-75
2023/01/17 11:24:07;;;;;;;6.07;3.22;;;;;;;;;;5120275;28;20057;-75
2023/01/17 11:26:54;;;;;;;4.45;2.92;;;;;;;;;;5118771;28;20024;-75
2023/01/17 11:29:39;;;;;;;5.35;3.38;;;;;;;;;;5119699;28;20038;-75
2023/01/17 11:32:29;;;;;;;4.07;2.83;;;;;;;;;;5118273;28;20047;-76
2023/01/17 11:35:17;;;;;;;7.38;3.08;;;;;;;;;;5104138;28;20016;-75
2023/01/17 11:38:09;;;;;;;5.95;3.25;;;;;;;;;;5118142;28;20023;-76
2023/01/17 11:41:18;;;;;;;7.72;2.92;;;;;;;;;;5118860;28;20031;-75
2023/01/17 11:44:01;;;;;;;5.38;2.63;;;;;;;;;;5118166;28;20031;-75
2023/01/17 11:46:46;;;;;;;3.78;2.55;;;;;;;;;;5118921;28;20081;-75
2023/01/17 11:49:32;;;;;;;8.32;3.28;;;;;;;;;;5119296;28;20023;-75
2023/01/17 11:52:30;;;;;;;6.97;3.38;;;;;;;;;;5118056;28;20368;-75
2023/01/17 11:55:16;;;;;;;86.07;49.85;;;;;;;;;;5124771;28;20026;-75
2023/01/17 11:58:01;;;;;;;17.15;5.55;;;;;;;;;;5135757;28;20088;-75
2023/01/17 12:00:53;;;;;;;9.48;5.55;;;;;;;;;;5118973;28;20047;-75
2023/01/17 12:03:50;;;;;;;7.63;4.35;;;;;;;;;;5117616;28;20030;-76
2023/01/17 12:06:43;;;;;;;5.30;3.28;;;;;;;;;;5118210;28;20023;-75
2023/01/17 12:09:38;;;;;;;5.05;3.10;;;;;;;;;;5104129;28;20049;-74
2023/01/17 12:15:33;;;;;;;4.63;3.20;;;;;;;;;;5117796;28;20024;-75
2023/01/17 12:18:37;;;;;;;8.98;3.15;;;;;;;;;;5118195;28;20440;-74
2023/01/17 12:21:42;;;;;;;6.75;3.25;;;;;;;;;;5123993;28;20087;-74
2023/01/17 12:24:30;;;;;;;7.30;4.10;;;;;;;;;;5131895;28;20027;-75
2023/01/17 12:27:28;;;;;;;9.35;3.50;;;;;;;;;;5111971;28;20093;-75
2023/01/17 12:30:20;;;;;;;4.95;2.80;;;;;;;;;;5120499;28;20019;-75
2023/01/17 12:33:12;;;;;;;6.97;3.15;;;;;;;;;;5117764;28;20139;-75
2023/01/17 12:36:00;;;;;;;4.50;3.10;;;;;;;;;;5119074;28;20031;-74
2023/01/17 12:38:46;;;;;;;3.80;2.50;;;;;;;;;;5119954;27;20092;-77
2023/01/17 12:41:38;;;;;;;5.13;2.60;;;;;;;;;;5117534;28;20080;-76
2023/01/17 12:44:34;;;;;;;7.78;3.13;;;;;;;;;;5117946;28;20107;-76
2023/01/17 12:47:20;;;;;;;5.05;3.05;;;;;;;;;;5118248;28;20447;-75
2023/01/17 12:50:14;;;;;;;9.00;4.10;;;;;;;;;;5118019;28;20035;-75
2023/01/17 12:53:14;;;;;;;5.85;3.28;;;;;;;;;;5117857;28;20076;-76
2023/01/17 12:56:00;;;;;;;5.55;3.25;;;;;;;;;;5117616;28;20095;-74
2023/01/17 12:59:01;;;;;;;4.85;3.13;;;;;;;;;;5103144;28;20011;-75
2023/01/17 13:01:57;;;;;;;6.63;3.10;;;;;;;;;;5118734;28;20140;-73
2023/01/17 13:04:58;;;;;;;6.13;3.20;;;;;;;;;;5117235;28;20363;-74
2023/01/17 13:08:07;;;;;;;6.63;3.00;;;;;;;;;;5117077;28;20027;-75
2023/01/17 13:11:02;;;;;;;5.15;3.22;;;;;;;;;;5073686;28;20023;-74
2023/01/17 13:13:50;;;;;;;7.90;3.78;;;;;;;;;;5102793;28;20031;-76
2023/01/17 13:16:41;;;;;;;8.43;3.92;;;;;;;;;;5131647;27;20012;-75
2023/01/17 13:19:44;;;;;;;17.90;10.88;;;;;;;;;;5106572;28;20125;-73
2023/01/17 13:22:30;;;;;;;6.95;4.07;;;;;;;;;;5117317;28;20019;-74
2023/01/17 13:25:35;;;;;;;8.98;3.20;;;;;;;;;;5102915;28;20028;-74
2023/01/17 13:28:39;;;;;;;7.10;3.20;;;;;;;;;;5101982;28;20024;-74
2023/01/17 13:31:34;;;;;;;9.05;3.63;;;;;;;;;;5116384;28;20011;-74
2023/01/17 13:34:29;;;;;;;7.68;3.30;;;;;;;;;;5116736;28;20054;-75
2023/01/17 13:37:26;;;;;;;7.95;3.50;;;;;;;;;;5117322;28;20439;-74
2023/01/17 13:40:27;;;;;;;8.90;3.90;;;;;;;;;;5116491;28;20030;-75
2023/01/17 13:43:17;;;;;;;11.25;4.30;;;;;;;;;;5116642;28;20106;-76
2023/01/17 13:46:02;;;;;;;6.25;3.38;;;;;;;;;;5101292;28;20449;-77
2023/01/17 13:49:09;;;;;;;8.80;4.30;;;;;;;;;;5115998;28;20094;-74
2023/01/17 13:52:06;;;;;;;7.50;3.40;;;;;;;;;;5117825;28;20102;-74
2023/01/17 13:54:55;;;;;;;7.18;3.90;;;;;;;;;;5116221;28;20072;-72
2023/01/17 13:57:42;;;;;;;9.82;4.25;;;;;;;;;;5117745;28;20340;-74
2023/01/17 14:00:28;;;;;;;13.38;4.60;;;;;;;;;;5116719;28;20455;-74
2023/01/17 14:03:13;;;;;;;9.75;4.30;;;;;;;;;;5115656;28;20019;-74
2023/01/17 14:05:59;;;;;;;10.80;4.38;;;;;;;;;;5116885;28;20500;-72
2023/01/17 14:08:46;;;;;;;9.35;4.60;;;;;;;;;;5116450;28;20023;-74
2023/01/17 14:11:33;;;;;;;11.35;4.88;;;;;;;;;;5119339;28;20115;-74
2023/01/17 14:14:33;;;;;;;8.00;4.32;;;;;;;;;;5115453;28;20019;-73
2023/01/17 14:17:19;;;;;;;10.00;4.40;;;;;;;;;;5116394;28;20031;-75
2023/01/17 14:20:04;;;;;;;10.60;4.40;;;;;;;;;;5114930;28;20066;-75
2023/01/17 14:22:52;;;;;;;7.95;4.65;;;;;;;;;;5115274;28;20031;-75
2023/01/17 14:25:38;;;;;;;9.52;5.10;;;;;;;;;;5115076;28;20030;-74
2023/01/17 14:28:28;;;;;;;10.23;5.25;;;;;;;;;;5115794;28;20106;-74
2023/01/17 14:31:15;;;;;;;7.38;4.60;;;;;;;;;;5115790;28;20034;-73
2023/01/17 14:34:11;;;;;;;11.68;4.43;;;;;;;;;;5099953;28;20447;-74
2023/01/17 14:37:15;;;;;;;11.13;4.70;;;;;;;;;;5115857;28;20062;-74
2023/01/17 14:40:02;;;;;;;11.30;5.43;;;;;;;;;;5101126;28;20011;-74
2023/01/17 14:42:52;;;;;;;11.52;5.30;;;;;;;;;;5114723;28;20020;-73
2023/01/17 14:45:38;;;;;;;11.10;4.82;;;;;;;;;;5115306;28;20031;-74
2023/01/17 14:48:28;;;;;;;17.42;5.80;;;;;;;;;;5118696;28;20023;-74
2023/01/17 14:51:18;;;;;;;10.73;4.82;;;;;;;;;;5101526;28;20031;-73
2023/01/17 14:54:14;;;;;;;9.52;5.22;;;;;;;;;;5114984;28;20023;-79
2023/01/17 14:57:18;;;;;;;9.20;5.60;;;;;;;;;;5102651;28;20015;-75
2023/01/17 15:00:20;;;;;;;9.77;4.75;;;;;;;;;;5117866;28;20084;-76
2023/01/17 15:03:09;;;;;;;10.05;5.57;;;;;;;;;;5116049;28;20034;-78
2023/01/17 15:05:56;;;;;;;12.10;5.50;;;;;;;;;;5101667;28;20012;-78
2023/01/17 15:08:42;;;;;;;10.73;5.85;;;;;;;;;;5103117;28;20016;-77
2023/01/17 15:11:33;;;;;;;16.10;6.38;;;;;;;;;;5115495;28;20401;-75
2023/01/17 15:14:23;;;;;;;10.15;5.53;;;;;;;;;;5101104;28;20015;-75
2023/01/17 15:17:12;;;;;;;18.75;6.78;;;;;;;;;;5099822;28;20448;-76
2023/01/17 15:20:00;;;;;;;14.77;6.15;;;;;;;;;;5101409;28;20439;-76
2023/01/17 15:22:46;;;;;;;15.98;7.50;;;;;;;;;;5114488;28;20407;-75
2023/01/17 15:25:32;;;;;;;17.55;7.47;;;;;;;;;;5114907;28;20038;-75
2023/01/17 15:28:18;;;;;;;12.35;6.80;;;;;;;;;;5099839;28;20028;-75
2023/01/17 15:31:09;;;;;;;15.25;7.30;;;;;;;;;;5114451;28;20032;-75
2023/01/17 15:33:56;;;;;;;14.82;6.88;;;;;;;;;;5114137;28;20035;-75
2023/01/17 15:36:41;;;;;;;13.75;7.13;;;;;;;;;;5114470;28;20075;-74
2023/01/17 15:39:29;;;;;;;13.88;6.97;;;;;;;;;;5113886;28;20520;-75
2023/01/17 15:42:27;;;;;;;15.10;7.32;;;;;;;;;;5099466;28;20035;-74
2023/01/17 15:45:15;;;;;;;13.93;7.07;;;;;;;;;;5115051;28;20027;-75
2023/01/17 15:48:19;;;;;;;11.40;6.60;;;;;;;;;;5114348;28;20024;-75
2023/01/17 15:51:05;;;;;;;12.20;6.40;;;;;;;;;;5103913;28;20019;-76
2023/01/17 15:53:51;;;;;;;15.55;9.23;;;;;;;;;;5118426;28;20110;-75
2023/01/17 15:56:36;;;;;;;15.45;8.10;;;;;;;;;;5118330;28;20058;-75
2023/01/17 15:59:38;;;;;;;15.50;9.05;;;;;;;;;;5119967;28;20136;-73
2023/01/17 16:02:23;;;;;;;20.90;12.07;;;;;;;;;;5104065;28;20044;-74
2023/01/17 16:05:21;;;;;;;31.45;14.52;;;;;;;;;;5102988;28;20012;-76
2023/01/17 16:08:06;;;;;;;24.27;12.38;;;;;;;;;;5118457;28;20020;-75
2023/01/17 16:11:00;;;;;;;15.77;9.00;;;;;;;;;;5102360;28;20024;-75
2023/01/17 16:13:47;;;;;;;15.02;9.00;;;;;;;;;;5117979;28;20034;-75
2023/01/17 16:16:32;;;;;;;25.40;12.95;;;;;;;;;;5118098;28;20088;-73
2023/01/17 16:19:20;;;;;;;17.63;10.05;;;;;;;;;;5102523;28;20494;-76
2023/01/17 16:22:06;;;;;;;15.98;7.78;;;;;;;;;;5117688;28;20035;-75
2023/01/17 16:24:54;;;;;;;14.80;9.30;;;;;;;;;;5117373;28;20019;-75
2023/01/17 16:27:41;;;;;;;14.77;8.02;;;;;;;;;;5118677;28;20466;-77
2023/01/17 16:30:28;;;;;;;10.75;6.78;;;;;;;;;;5117157;28;20034;-76
2023/01/17 16:33:14;;;;;;;11.35;6.13;;;;;;;;;;5117011;28;20020;-75
2023/01/17 16:35:59;;;;;;;11.95;6.53;;;;;;;;;;5117558;28;20020;-82
2023/01/17 16:38:47;;;;;;;11.35;5.68;;;;;;;;;;5120702;28;20439;-83
2023/01/17 16:41:32;;;;;;;14.27;7.47;;;;;;;;;;5123604;28;20024;-82
2023/01/17 16:44:20;;;;;;;13.25;6.75;;;;;;;;;;5127263;28;20023;-80
2023/01/17 16:47:06;;;;;;;13.50;6.78;;;;;;;;;;5123989;28;20027;-77
2023/01/17 16:49:52;;;;;;;13.05;6.55;;;;;;;;;;5125263;28;20098;-82
2023/01/17 16:52:38;;;;;;;11.68;7.18;;;;;;;;;;5125234;28;20428;-82
2023/01/17 16:55:24;;;;;;;14.02;7.53;;;;;;;;;;5120248;28;20032;-82
2023/01/17 16:58:09;;;;;;;18.48;8.20;;;;;;;;;;5111904;28;20031;-83
2023/01/17 17:00:56;;;;;;;16.70;9.18;;;;;;;;;;5109847;28;20039;-84
2023/01/17 17:03:44;;;;;;;14.40;9.27;;;;;;;;;;5120008;28;20016;-85
2023/01/17 17:06:30;;;;;;;17.98;9.73;;;;;;;;;;5111805;28;20015;-84
2023/01/17 17:09:17;;;;;;;12.02;7.60;;;;;;;;;;5119275;28;20030;-75
2023/01/17 17:12:03;;;;;;;14.63;7.95;;;;;;;;;;5116775;28;20400;-77
2023/01/17 17:14:49;;;;;;;15.95;8.15;;;;;;;;;;5117547;28;20023;-77
2023/01/17 17:17:39;;;;;;;15.57;8.48;;;;;;;;;;5116756;28;20059;-79
2023/01/17 17:20:24;;;;;;;17.13;8.55;;;;;;;;;;5117050;28;20023;-79
2023/01/17 17:23:10;;;;;;;15.23;8.02;;;;;;;;;;5117470;28;20012;-77
2023/01/17 17:25:56;;;;;;;15.80;8.70;;;;;;;;;;5102322;28;20462;-76
2023/01/17 17:28:42;;;;;;;17.13;8.75;;;;;;;;;;5116943;28;20087;-78
2023/01/17 17:31:27;;;;;;;13.93;8.02;;;;;;;;;;5116031;28;20364;-76
2023/01/17 17:34:14;;;;;;;13.48;7.68;;;;;;;;;;5116086;28;20012;-76
2023/01/17 17:37:00;;;;;;;14.10;8.02;;;;;;;;;;5101886;28;20020;-76
2023/01/17 17:39:45;;;;;;;15.10;7.78;;;;;;;;;;5116245;28;20579;-76
2023/01/17 17:42:31;;;;;;;15.43;7.20;;;;;;;;;;5115944;28;20032;-76
2023/01/17 17:45:17;;;;;;;12.20;6.78;;;;;;;;;;5115624;28;20030;-77
2023/01/17 17:48:02;;;;;;;10.20;6.28;;;;;;;;;;5117163;28;20038;-76
2023/01/17 17:50:54;;;;;;;12.82;6.88;;;;;;;;;;5115865;28;20016;-77
2023/01/17 17:53:40;;;;;;;12.45;6.80;;;;;;;;;;5115913;28;20012;-76
2023/01/17 17:56:26;;;;;;;14.65;7.97;;;;;;;;;;5116269;28;20023;-78
2023/01/17 17:59:17;;;;;;;19.27;7.13;;;;;;;;;;5116240;28;20076;-77
2023/01/17 18:02:09;;;;;;;11.82;7.78;;;;;;;;;;5115527;28;20051;-76